createdAt,value
2023-05-02T00:00:56.357Z,31.10
2023-05-02T00:01:56.402Z,28.39
2023-05-02T00:02:56.583Z,27.94
2023-05-02T00:03:56.579Z,28.62
2023-05-02T00:04:56.473Z,27.11
2023-05-02T00:05:56.482Z,30.69
2023-05-02T00:06:56.533Z,30.91
2023-05-02T00:07:56.515Z,26.65
2023-05-02T00:08:56.540Z,28.60
2023-05-02T00:09:56.629Z,29.98
2023-05-02T00:10:56.608Z,32.20
2023-05-02T00:11:56.594Z,29.62
2023-05-02T00:12:56.620Z,31.49
2023-05-02T00:13:56.631Z,27.42
2023-05-02T00:14:56.661Z,33.07
2023-05-02T00:15:56.676Z,30.68
2023-05-02T00:16:56.741Z,29.80
2023-05-02T00:17:56.831Z,30.83
2023-05-02T00:18:56.707Z,28.96
2023-05-02T00:19:56.855Z,31.35
2023-05-02T00:20:56.800Z,33.40
2023-05-02T00:21:56.793Z,31.13
2023-05-02T00:22:56.828Z,30.81
2023-05-02T00:23:56.825Z,29.86
2023-05-02T00:24:56.875Z,27.93
2023-05-02T00:25:56.860Z,30.89
2023-05-02T00:26:56.912Z,32.82
2023-05-02T00:27:56.905Z,30.19
2023-05-02T00:28:56.971Z,28.25
2023-05-02T00:29:57.099Z,28.87
2023-05-02T00:30:57.009Z,29.54
2023-05-02T00:31:57.001Z,29.80
2023-05-02T00:32:57.115Z,27.85
2023-05-02T00:33:57.056Z,29.02
2023-05-02T00:34:57.097Z,27.87
2023-05-02T00:35:57.096Z,28.70
2023-05-02T00:36:57.147Z,28.76
2023-05-02T00:37:57.146Z,28.43
2023-05-02T00:38:57.166Z,32.23
2023-05-02T00:39:57.495Z,29.08
2023-05-02T00:40:57.228Z,30.40
2023-05-02T00:41:57.235Z,29.04
2023-05-02T00:42:57.260Z,31.75
2023-05-02T00:43:57.308Z,32.01
2023-05-02T00:44:57.338Z,30.39
2023-05-02T00:45:57.376Z,31.76
2023-05-02T00:46:57.447Z,31.11
2023-05-02T00:47:57.493Z,29.88
2023-05-02T00:48:57.406Z,29.39
2023-05-02T00:49:57.520Z,31.51
2023-05-02T00:50:57.466Z,29.04
2023-05-02T00:51:57.493Z,26.60
2023-05-02T00:52:57.506Z,28.23
2023-05-02T00:53:57.561Z,29.59
2023-05-02T00:54:57.579Z,28.87
2023-05-02T00:55:57.578Z,31.21
2023-05-02T00:56:57.640Z,29.59
2023-05-02T00:57:57.665Z,27.76
2023-05-02T00:58:57.684Z,29.18
2023-05-02T00:59:57.892Z,29.33
2023-05-02T01:00:57.717Z,30.02
2023-05-02T01:01:57.798Z,28.54
2023-05-02T01:02:57.860Z,29.17
2023-05-02T01:03:57.967Z,29.19
2023-05-02T01:04:57.835Z,28.02
2023-05-02T01:05:57.846Z,27.88
2023-05-02T01:06:57.865Z,30.28
2023-05-02T01:07:57.919Z,29.11
2023-05-02T01:08:57.929Z,28.73
2023-05-02T01:09:58.171Z,31.02
2023-05-02T01:10:58.017Z,31.42
2023-05-02T01:11:58.017Z,30.27
2023-05-02T01:12:58.034Z,31.56
2023-05-02T01:13:58.075Z,28.19
2023-05-02T01:14:58.125Z,28.90
2023-05-02T01:15:58.126Z,27.68
2023-05-02T01:16:58.170Z,30.72
2023-05-02T01:17:58.202Z,30.37
2023-05-02T01:18:58.194Z,28.49
2023-05-02T01:19:58.383Z,28.98
2023-05-02T01:20:58.239Z,28.84
2023-05-02T01:21:58.283Z,28.21
2023-05-02T01:22:58.291Z,26.82
2023-05-02T01:23:58.527Z,30.33
2023-05-02T01:24:58.355Z,31.08
2023-05-02T01:25:58.350Z,30.74
2023-05-02T01:26:58.403Z,29.92
2023-05-02T01:27:58.507Z,28.32
2023-05-02T01:28:58.561Z,29.62
2023-05-02T01:29:58.970Z,31.77
2023-05-02T01:30:58.560Z,29.41
2023-05-02T01:31:58.802Z,26.08
2023-05-02T01:32:58.649Z,27.10
2023-05-02T01:33:58.604Z,30.72
2023-05-02T01:34:58.621Z,29.15
2023-05-02T01:35:58.637Z,27.34
2023-05-02T01:36:58.673Z,28.98
2023-05-02T01:37:58.680Z,29.10
2023-05-02T01:38:58.781Z,31.46
2023-05-02T01:39:59.104Z,29.95
2023-05-02T01:40:58.778Z,29.82
2023-05-02T01:41:58.797Z,31.12
2023-05-02T01:42:58.848Z,31.60
2023-05-02T01:43:58.971Z,30.07
2023-05-02T01:44:58.888Z,29.05
2023-05-02T01:45:58.918Z,28.43
2023-05-02T01:46:59.054Z,29.06
2023-05-02T01:47:59.066Z,29.61
2023-05-02T01:48:58.996Z,29.77
2023-05-02T01:49:59.047Z,29.17
2023-05-02T01:50:59.036Z,31.86
2023-05-02T01:51:59.079Z,29.31
2023-05-02T01:52:59.128Z,27.72
2023-05-02T01:53:59.128Z,30.67
2023-05-02T01:54:59.192Z,29.95
2023-05-02T01:55:59.194Z,31.04
2023-05-02T01:56:59.244Z,29.30
2023-05-02T01:57:59.244Z,30.26
2023-05-02T01:58:59.278Z,30.63
2023-05-02T01:59:59.520Z,28.81
2023-05-02T02:00:59.343Z,29.61
2023-05-02T02:01:59.315Z,31.22
2023-05-02T02:02:59.415Z,29.04
2023-05-02T02:03:59.476Z,31.27
2023-05-02T02:04:59.475Z,29.41
2023-05-02T02:05:59.519Z,31.40
2023-05-02T02:06:59.466Z,29.10
2023-05-02T02:07:59.502Z,28.23
2023-05-02T02:08:59.545Z,28.81
2023-05-02T02:09:59.703Z,29.94
2023-05-02T02:10:59.601Z,28.77
2023-05-02T02:11:59.584Z,27.92
2023-05-02T02:12:59.647Z,28.31
2023-05-02T02:13:59.651Z,29.26
2023-05-02T02:14:59.688Z,28.74
2023-05-02T02:15:59.732Z,29.20
2023-05-02T02:16:59.805Z,31.98
2023-05-02T02:17:59.859Z,29.58
2023-05-02T02:18:59.808Z,28.62
2023-05-02T02:20:00.151Z,29.19
2023-05-02T02:20:59.911Z,29.69
2023-05-02T02:21:59.888Z,30.76
2023-05-02T02:22:59.936Z,27.45
2023-05-02T02:23:59.965Z,29.22
2023-05-02T02:25:00.022Z,28.82
2023-05-02T02:26:00.030Z,29.48
2023-05-02T02:27:00.063Z,29.03
2023-05-02T02:28:00.125Z,27.97
2023-05-02T02:29:00.131Z,29.97
2023-05-02T02:30:00.315Z,30.96
2023-05-02T02:31:00.222Z,28.57
2023-05-02T02:32:00.211Z,25.60
2023-05-02T02:33:00.282Z,27.62
2023-05-02T02:34:00.261Z,30.92
2023-05-02T02:35:00.291Z,27.62
2023-05-02T02:36:00.328Z,31.18
2023-05-02T02:37:00.354Z,31.40
2023-05-02T02:38:00.408Z,32.00
2023-05-02T02:39:00.448Z,28.20
2023-05-02T02:40:00.948Z,30.34
2023-05-02T02:41:00.497Z,29.51
2023-05-02T02:42:00.511Z,29.74
2023-05-02T02:43:00.617Z,30.71
2023-05-02T02:44:00.603Z,29.37
2023-05-02T02:45:00.632Z,32.84
2023-05-02T02:46:00.722Z,28.77
2023-05-02T02:47:00.668Z,30.11
2023-05-02T02:48:00.713Z,30.18
2023-05-02T02:49:00.800Z,30.84
2023-05-02T02:50:01.252Z,29.83
2023-05-02T02:51:00.828Z,30.31
2023-05-02T02:52:00.845Z,30.26
2023-05-02T02:53:00.878Z,30.38
2023-05-02T02:54:00.907Z,29.55
2023-05-02T02:55:00.935Z,30.34
2023-05-02T02:56:00.973Z,31.96
2023-05-02T02:57:01.000Z,31.20
2023-05-02T02:58:01.038Z,29.71
2023-05-02T02:59:01.114Z,28.68
2023-05-02T03:00:01.385Z,32.36
2023-05-02T03:01:01.134Z,27.87
2023-05-02T03:02:01.236Z,28.33
2023-05-02T03:03:01.260Z,29.90
2023-05-02T03:04:01.299Z,30.18
2023-05-02T03:05:01.297Z,27.72
2023-05-02T03:06:01.318Z,29.59
2023-05-02T03:07:01.320Z,30.05
2023-05-02T03:08:01.363Z,30.04
2023-05-02T03:09:01.426Z,30.21
2023-05-02T03:10:01.577Z,27.51
2023-05-02T03:11:01.512Z,28.55
2023-05-02T03:12:01.529Z,31.22
2023-05-02T03:13:01.567Z,27.18
2023-05-02T03:14:01.620Z,25.52
2023-05-02T03:15:01.723Z,30.64
2023-05-02T03:16:01.781Z,26.68
2023-05-02T03:17:01.708Z,31.13
2023-05-02T03:18:01.830Z,29.09
2023-05-02T03:19:01.807Z,28.15
2023-05-02T03:20:02.027Z,30.09
2023-05-02T03:21:01.868Z,30.93
2023-05-02T03:22:01.932Z,26.35
2023-05-02T03:23:01.954Z,27.44
2023-05-02T03:24:02.007Z,30.12
2023-05-02T03:25:02.012Z,30.21
2023-05-02T03:26:02.063Z,28.99
2023-05-02T03:27:02.124Z,29.93
2023-05-02T03:28:02.135Z,30.00
2023-05-02T03:29:02.189Z,32.76
2023-05-02T03:30:02.356Z,28.87
2023-05-02T03:31:02.438Z,28.53
2023-05-02T03:32:02.376Z,31.25
2023-05-02T03:33:02.385Z,29.43
2023-05-02T03:34:02.350Z,30.37
2023-05-02T03:35:02.392Z,30.38
2023-05-02T03:36:02.386Z,28.62
2023-05-02T03:37:02.439Z,26.00
2023-05-02T03:38:02.489Z,32.06
2023-05-02T03:39:02.543Z,29.23
2023-05-02T03:40:02.770Z,27.39
2023-05-02T03:41:02.596Z,27.32
2023-05-02T03:42:02.591Z,30.11
2023-05-02T03:43:02.676Z,29.41
2023-05-02T03:44:02.727Z,29.68
2023-05-02T03:45:02.725Z,27.74
2023-05-02T03:46:02.749Z,30.36
2023-05-02T03:47:02.848Z,28.56
2023-05-02T03:48:02.885Z,27.93
2023-05-02T03:49:02.927Z,27.42
2023-05-02T03:50:03.122Z,31.55
2023-05-02T03:51:02.995Z,29.27
2023-05-02T03:52:02.991Z,25.79
2023-05-02T03:53:03.097Z,30.42
2023-05-02T03:54:03.060Z,29.46
2023-05-02T03:55:03.097Z,30.35
2023-05-02T03:56:03.124Z,31.83
2023-05-02T03:57:03.184Z,33.01
2023-05-02T03:58:03.198Z,27.94
2023-05-02T03:59:03.245Z,27.57
2023-05-02T04:00:03.884Z,29.96
2023-05-02T04:01:03.336Z,30.79
2023-05-02T04:02:03.430Z,27.56
2023-05-02T04:03:03.434Z,29.58
2023-05-02T04:04:03.462Z,28.89
2023-05-02T04:05:03.442Z,29.06
2023-05-02T04:06:03.501Z,29.43
2023-05-02T04:07:03.477Z,27.10
2023-05-02T04:08:03.536Z,29.17
2023-05-02T04:09:03.580Z,30.50
2023-05-02T04:10:03.839Z,27.51
2023-05-02T04:11:03.669Z,26.98
2023-05-02T04:12:03.669Z,29.96
2023-05-02T04:13:03.696Z,29.75
2023-05-02T04:14:03.739Z,29.70
2023-05-02T04:15:03.760Z,29.87
2023-05-02T04:16:03.795Z,27.55
2023-05-02T04:17:03.953Z,28.72
2023-05-02T04:18:03.927Z,28.86
2023-05-02T04:19:03.920Z,29.54
2023-05-02T04:20:05.536Z,26.93
2023-05-02T04:21:03.985Z,28.74
2023-05-02T04:22:04.013Z,29.69
2023-05-02T04:23:04.108Z,31.09
2023-05-02T04:24:04.191Z,29.29
2023-05-02T04:25:04.180Z,28.60
2023-05-02T04:26:04.181Z,29.69
2023-05-02T04:27:04.243Z,28.96
2023-05-02T04:28:04.314Z,30.34
2023-05-02T04:29:04.343Z,26.13
2023-05-02T04:30:04.357Z,27.67
2023-05-02T04:31:04.439Z,29.03
2023-05-02T04:32:04.453Z,26.71
2023-05-02T04:33:04.559Z,30.37
2023-05-02T04:34:04.572Z,28.86
2023-05-02T04:35:04.579Z,29.68
2023-05-02T04:36:04.591Z,30.46
2023-05-02T04:37:04.639Z,29.81
2023-05-02T04:38:04.673Z,30.49
2023-05-02T04:39:04.726Z,30.54
2023-05-02T04:40:04.753Z,29.71
2023-05-02T04:41:08.983Z,32.15
2023-05-02T04:42:05.759Z,32.33
2023-05-02T04:43:04.797Z,32.41
2023-05-02T04:44:04.784Z,31.96
2023-05-02T04:45:04.766Z,28.09
2023-05-02T04:46:04.823Z,30.50
2023-05-02T04:47:04.792Z,30.88
2023-05-02T04:48:04.899Z,29.11
2023-05-02T04:49:04.748Z,31.40
2023-05-02T04:50:04.763Z,29.52
2023-05-02T04:51:04.780Z,30.13
2023-05-02T04:52:04.744Z,29.13
2023-05-02T04:53:04.750Z,29.50
2023-05-02T04:54:04.767Z,31.46
2023-05-02T04:55:04.806Z,30.72
2023-05-02T04:56:04.835Z,30.13
2023-05-02T04:57:04.888Z,32.73
2023-05-02T04:58:04.927Z,31.29
2023-05-02T04:59:04.952Z,30.20
2023-05-02T05:00:04.986Z,30.88
2023-05-02T05:01:05.069Z,29.64
2023-05-02T05:02:05.187Z,30.76
2023-05-02T05:03:05.167Z,29.58
2023-05-02T05:04:05.359Z,29.50
2023-05-02T05:05:05.238Z,29.03
2023-05-02T05:06:05.280Z,29.21
2023-05-02T05:07:05.277Z,27.94
2023-05-02T05:08:05.332Z,31.43
2023-05-02T05:09:05.411Z,30.49
2023-05-02T05:10:05.425Z,30.55
2023-05-02T05:11:05.457Z,29.69
2023-05-02T05:12:05.494Z,30.14
2023-05-02T05:13:05.551Z,33.15
2023-05-02T05:14:05.633Z,30.25
2023-05-02T05:15:05.613Z,30.39
2023-05-02T05:16:05.724Z,29.76
2023-05-02T05:17:05.703Z,29.32
2023-05-02T05:18:05.811Z,31.07
2023-05-02T05:19:05.814Z,29.30
2023-05-02T05:20:06.651Z,31.42
2023-05-02T05:21:05.891Z,32.43
2023-05-02T05:22:05.942Z,28.92
2023-05-02T05:23:05.950Z,30.92
2023-05-02T05:24:05.989Z,29.99
2023-05-02T05:25:06.059Z,29.88
2023-05-02T05:26:06.061Z,32.38
2023-05-02T05:27:06.122Z,31.10
2023-05-02T05:28:06.191Z,31.80
2023-05-02T05:29:06.224Z,31.55
2023-05-02T05:30:06.239Z,30.47
2023-05-02T05:31:06.374Z,31.91
2023-05-02T05:32:06.456Z,30.65
2023-05-02T05:33:06.393Z,28.15
2023-05-02T05:34:06.400Z,28.95
2023-05-02T05:35:06.906Z,32.66
2023-05-02T05:36:06.474Z,35.57
2023-05-02T05:37:06.543Z,38.61
2023-05-02T05:38:06.569Z,37.72
2023-05-02T05:39:07.359Z,52.18
2023-05-02T05:40:06.656Z,63.07
2023-05-02T05:41:06.686Z,63.95
2023-05-02T05:42:06.711Z,57.39
2023-05-02T05:43:06.807Z,71.10
2023-05-02T05:44:06.826Z,82.44
2023-05-02T05:45:06.846Z,78.67
2023-05-02T05:46:06.918Z,81.61
2023-05-02T05:47:07.008Z,113.99
2023-05-02T05:48:07.000Z,108.22
2023-05-02T05:49:07.005Z,124.41
2023-05-02T05:50:07.009Z,109.51
2023-05-02T05:51:07.065Z,119.01
2023-05-02T05:52:07.078Z,132.25
2023-05-02T05:53:07.083Z,130.81
2023-05-02T05:54:07.080Z,135.11
2023-05-02T05:55:07.105Z,152.48
2023-05-02T05:56:07.098Z,152.27
2023-05-02T05:57:07.128Z,161.39
2023-05-02T05:58:07.139Z,166.24
2023-05-02T05:59:07.142Z,171.58
2023-05-02T06:00:07.144Z,174.83
2023-05-02T06:01:07.200Z,182.23
2023-05-02T06:02:07.176Z,186.64
2023-05-02T06:03:09.569Z,190.65
2023-05-02T06:04:07.214Z,204.25
2023-05-02T06:05:07.410Z,210.80
2023-05-02T06:06:07.197Z,218.67
2023-05-02T06:07:07.128Z,219.47
2023-05-02T06:08:07.110Z,224.04
2023-05-02T06:09:07.124Z,229.61
2023-05-02T06:10:07.171Z,232.79
2023-05-02T06:11:07.089Z,236.03
2023-05-02T06:12:07.071Z,241.72
2023-05-02T06:13:07.071Z,245.08
2023-05-02T06:14:07.083Z,249.67
2023-05-02T06:15:07.090Z,248.32
2023-05-02T06:16:07.097Z,249.53
2023-05-02T06:17:07.038Z,249.58
2023-05-02T06:18:07.067Z,248.08
2023-05-02T06:19:07.019Z,251.11
2023-05-02T06:20:07.390Z,249.71
2023-05-02T06:21:06.968Z,249.98
2023-05-02T06:22:07.024Z,250.00
2023-05-02T06:23:06.954Z,249.99
2023-05-02T06:24:06.983Z,248.78
2023-05-02T06:25:06.956Z,250.00
2023-05-02T06:26:06.941Z,250.00
2023-05-02T06:27:06.953Z,249.06
2023-05-02T06:28:06.943Z,248.97
2023-05-02T06:29:06.949Z,248.96
2023-05-02T06:30:07.423Z,249.55
2023-05-02T06:31:06.946Z,249.11
2023-05-02T06:32:06.952Z,250.00
2023-05-02T06:33:06.868Z,249.08
2023-05-02T06:34:06.830Z,249.93
2023-05-02T06:35:06.804Z,250.18
2023-05-02T06:36:06.771Z,248.79
2023-05-02T06:37:06.740Z,249.22
2023-05-02T06:38:06.706Z,250.00
2023-05-02T06:39:06.682Z,246.94
2023-05-02T06:40:06.674Z,250.00
2023-05-02T06:41:06.641Z,250.00
2023-05-02T06:42:06.609Z,250.00
2023-05-02T06:43:06.643Z,249.90
2023-05-02T06:44:06.579Z,249.52
2023-05-02T06:45:06.548Z,250.00
2023-05-02T06:46:06.494Z,246.91
2023-05-02T06:47:06.551Z,246.24
2023-05-02T06:48:06.598Z,245.26
2023-05-02T06:49:06.423Z,245.87
2023-05-02T06:50:06.443Z,250.00
2023-05-02T06:51:06.394Z,248.16
2023-05-02T06:52:06.382Z,250.01
2023-05-02T06:53:06.330Z,249.23
2023-05-02T06:54:06.322Z,250.00
2023-05-02T06:55:06.320Z,247.47
2023-05-02T06:56:06.295Z,248.39
2023-05-02T06:57:06.267Z,247.35
2023-05-02T06:58:06.220Z,248.95
2023-05-02T06:59:06.198Z,247.86
2023-05-02T07:00:06.444Z,249.09
2023-05-02T07:01:06.178Z,247.97
2023-05-02T07:02:06.133Z,249.59
2023-05-02T07:03:06.118Z,248.99
2023-05-02T07:04:06.196Z,248.17
2023-05-02T07:05:06.201Z,249.63
2023-05-02T07:06:06.252Z,249.24
2023-05-02T07:07:06.297Z,248.83
2023-05-02T07:08:06.315Z,249.20
2023-05-02T07:09:06.343Z,248.99
2023-05-02T07:10:06.376Z,248.59
2023-05-02T07:11:06.391Z,249.35
2023-05-02T07:12:06.998Z,249.54
2023-05-02T07:13:06.463Z,246.36
2023-05-02T07:14:06.507Z,248.03
2023-05-02T07:15:06.572Z,248.56
2023-05-02T07:16:06.602Z,248.92
2023-05-02T07:17:06.663Z,250.00
2023-05-02T07:18:06.633Z,249.11
2023-05-02T07:19:06.731Z,248.42
2023-05-02T07:20:06.720Z,249.34
2023-05-02T07:21:06.750Z,248.38
2023-05-02T07:22:06.889Z,248.51
2023-05-02T07:23:06.857Z,249.73
2023-05-02T07:24:06.809Z,248.37
2023-05-02T07:25:06.859Z,250.00
2023-05-02T07:26:06.880Z,248.86
2023-05-02T07:27:06.884Z,248.78
2023-05-02T07:28:06.932Z,248.98
2023-05-02T07:29:07.020Z,249.35
2023-05-02T07:30:07.025Z,249.27
2023-05-02T07:31:07.027Z,249.55
2023-05-02T07:32:07.119Z,250.00
2023-05-02T07:33:07.120Z,248.21
2023-05-02T07:34:07.112Z,249.06
2023-05-02T07:35:07.137Z,249.78
2023-05-02T07:36:07.122Z,248.48
2023-05-02T07:37:07.145Z,249.63
2023-05-02T07:38:07.179Z,250.19
2023-05-02T07:39:07.214Z,249.74
2023-05-02T07:40:07.226Z,249.10
2023-05-02T07:41:07.252Z,246.58
2023-05-02T07:42:07.254Z,244.76
2023-05-02T07:44:07.330Z,245.29
2023-05-02T07:45:07.393Z,245.33
2023-05-02T07:46:07.351Z,241.36
2023-05-02T07:47:07.398Z,235.25
2023-05-02T07:48:07.417Z,213.18
2023-05-02T07:49:07.494Z,174.74
2023-05-02T07:50:07.476Z,161.24
2023-05-02T07:51:07.471Z,147.33
2023-05-02T07:52:07.479Z,137.93
2023-05-02T07:53:07.544Z,116.16
2023-05-02T07:54:07.600Z,107.16
2023-05-02T07:55:07.655Z,98.74
2023-05-02T07:56:07.702Z,91.53
2023-05-02T07:57:07.715Z,83.95
2023-05-02T07:58:07.726Z,76.11
2023-05-02T07:59:07.756Z,71.70
2023-05-02T08:00:07.791Z,62.78
2023-05-02T08:01:07.826Z,55.90
2023-05-02T08:02:07.929Z,49.17
2023-05-02T08:03:08.191Z,46.24
2023-05-02T08:04:08.249Z,42.23
2023-05-02T08:05:08.172Z,38.03
2023-05-02T08:06:08.096Z,39.29
2023-05-02T08:07:08.141Z,55.77
2023-05-02T08:08:08.202Z,64.23
2023-05-02T08:09:08.172Z,68.79
2023-05-02T08:10:08.253Z,75.44
2023-05-02T08:11:08.303Z,78.21
2023-05-02T08:12:08.373Z,80.49
2023-05-02T08:13:08.437Z,85.31
2023-05-02T08:14:08.487Z,88.93
2023-05-02T08:15:08.547Z,90.77
2023-05-02T08:16:08.615Z,93.63
2023-05-02T08:17:08.583Z,95.56
2023-05-02T08:18:08.734Z,97.69
2023-05-02T08:19:08.577Z,100.15
2023-05-02T08:20:08.599Z,102.61
2023-05-02T08:21:08.596Z,105.03
2023-05-02T08:22:08.695Z,105.92
2023-05-02T08:23:08.630Z,109.38
2023-05-02T08:24:08.675Z,111.80
2023-05-02T08:25:08.711Z,113.67
2023-05-02T08:26:08.722Z,113.89
2023-05-02T08:27:08.788Z,119.11
2023-05-02T08:28:08.810Z,120.81
2023-05-02T08:29:08.880Z,123.40
2023-05-02T08:30:09.170Z,123.66
2023-05-02T08:31:08.976Z,125.81
2023-05-02T08:32:09.184Z,126.42
2023-05-02T08:33:09.109Z,129.60
2023-05-02T08:34:09.127Z,133.06
2023-05-02T08:35:09.219Z,136.33
2023-05-02T08:36:09.212Z,137.97
2023-05-02T08:37:09.239Z,141.14
2023-05-02T08:38:09.308Z,141.97
2023-05-02T08:39:09.397Z,144.40
2023-05-02T08:40:09.377Z,144.04
2023-05-02T08:41:09.440Z,148.58
2023-05-02T08:42:09.469Z,147.52
2023-05-02T08:43:09.510Z,152.25
2023-05-02T08:44:09.587Z,153.99
2023-05-02T08:45:09.964Z,156.80
2023-05-02T08:46:09.686Z,156.99
2023-05-02T08:47:09.785Z,157.02
2023-05-02T08:48:09.860Z,158.05
2023-05-02T08:49:09.841Z,159.73
2023-05-02T08:50:09.951Z,159.54
2023-05-02T08:51:09.910Z,158.20
2023-05-02T08:52:09.918Z,160.30
2023-05-02T08:53:10.048Z,161.96
2023-05-02T08:54:10.007Z,159.35
2023-05-02T08:55:10.026Z,160.15
2023-05-02T08:56:10.042Z,161.33
2023-05-02T08:57:10.093Z,159.63
2023-05-02T08:58:10.154Z,158.80
2023-05-02T08:59:10.153Z,160.84
2023-05-02T09:00:10.191Z,159.23
2023-05-02T09:01:10.246Z,159.46
2023-05-02T09:02:10.259Z,158.13
2023-05-02T09:03:10.264Z,157.08
2023-05-02T09:04:10.322Z,157.69
2023-05-02T09:05:10.315Z,159.49
2023-05-02T09:06:10.391Z,158.41
2023-05-02T09:07:10.926Z,156.77
2023-05-02T09:08:10.351Z,157.91
2023-05-02T09:09:10.409Z,157.51
2023-05-02T09:10:10.950Z,156.05
2023-05-02T09:11:10.399Z,156.16
2023-05-02T09:12:10.400Z,156.25
2023-05-02T09:13:10.369Z,156.02
2023-05-02T09:14:10.403Z,156.58
2023-05-02T09:15:10.409Z,154.30
2023-05-02T09:16:10.479Z,154.20
2023-05-02T09:17:10.422Z,153.88
2023-05-02T09:18:10.514Z,153.19
2023-05-02T09:19:10.337Z,153.46
2023-05-02T09:20:10.340Z,152.65
2023-05-02T09:21:10.569Z,153.58
2023-05-02T09:22:10.274Z,151.81
2023-05-02T09:23:10.242Z,151.57
2023-05-02T09:24:10.218Z,152.07
2023-05-02T09:25:10.219Z,151.03
2023-05-02T09:26:10.467Z,150.20
2023-05-02T09:27:10.156Z,151.55
2023-05-02T09:28:10.098Z,149.37
2023-05-02T09:29:10.108Z,149.68
2023-05-02T09:30:10.073Z,148.70
2023-05-02T09:31:10.082Z,150.26
2023-05-02T09:32:10.117Z,149.84
2023-05-02T09:33:10.091Z,147.62
2023-05-02T09:34:10.020Z,147.52
2023-05-02T09:35:10.013Z,145.72
2023-05-02T09:36:09.997Z,148.48
2023-05-02T09:37:10.332Z,146.12
2023-05-02T09:38:09.981Z,144.89
2023-05-02T09:39:09.969Z,145.97
2023-05-02T09:40:09.977Z,145.86
2023-05-02T09:41:09.989Z,145.50
2023-05-02T09:42:09.912Z,144.09
2023-05-02T09:43:09.896Z,143.16
2023-05-02T09:44:09.863Z,142.99
2023-05-02T09:45:09.876Z,141.77
2023-05-02T09:46:09.975Z,143.88
2023-05-02T09:47:09.977Z,143.44
2023-05-02T09:48:09.931Z,141.36
2023-05-02T09:49:09.917Z,142.14
2023-05-02T09:50:09.970Z,141.58
2023-05-02T09:51:10.021Z,138.71
2023-05-02T09:52:09.989Z,130.29
2023-05-02T09:53:10.101Z,119.90
2023-05-02T09:54:10.068Z,117.52
2023-05-02T09:55:10.070Z,104.69
2023-05-02T09:56:10.115Z,101.11
2023-05-02T09:57:10.073Z,89.24
2023-05-02T09:58:10.022Z,92.54
2023-05-02T09:59:10.206Z,86.09
2023-05-02T10:00:10.019Z,85.61
2023-05-02T10:01:10.020Z,77.50
2023-05-02T10:02:09.983Z,50.34
2023-05-02T10:03:10.043Z,39.37
2023-05-02T10:04:10.008Z,21.65
2023-05-02T10:05:09.968Z,25.00
2023-05-02T10:06:09.991Z,25.00
2023-05-02T10:07:10.014Z,25.40
2023-05-02T10:08:09.999Z,27.18
2023-05-02T10:09:10.037Z,25.91
2023-05-02T10:10:10.051Z,27.60
2023-05-02T10:11:10.492Z,25.90
2023-05-02T10:12:10.110Z,29.01
2023-05-02T10:13:10.107Z,30.98
2023-05-02T10:14:10.134Z,27.48
2023-05-02T10:15:10.130Z,27.25
2023-05-02T10:16:10.239Z,25.35
2023-05-02T10:17:10.168Z,25.88
2023-05-02T10:18:10.245Z,26.96
2023-05-02T10:19:10.219Z,28.22
2023-05-02T10:20:10.298Z,31.68
2023-05-02T10:21:10.294Z,34.28
2023-05-02T10:22:10.298Z,33.25
2023-05-02T10:23:10.335Z,28.39
2023-05-02T10:24:10.374Z,31.02
2023-05-02T10:25:10.392Z,29.04
2023-05-02T10:26:10.418Z,24.45
2023-05-02T10:27:10.455Z,25.62
2023-05-02T10:28:10.455Z,26.34
2023-05-02T10:29:10.458Z,27.66
2023-05-02T10:30:10.551Z,25.44
2023-05-02T10:31:10.560Z,26.53
2023-05-02T10:32:10.576Z,26.03
2023-05-02T10:33:10.636Z,25.27
2023-05-02T10:34:10.605Z,32.86
2023-05-02T10:35:10.645Z,25.53
2023-05-02T10:36:11.013Z,22.35
2023-05-02T10:37:10.694Z,28.46
2023-05-02T10:38:10.713Z,40.97
2023-05-02T10:39:10.809Z,24.88
2023-05-02T10:40:10.814Z,33.27
2023-05-02T10:41:10.986Z,25.71
2023-05-02T10:42:10.918Z,7.70
2023-05-02T10:43:10.974Z,18.79
2023-05-02T10:44:10.935Z,17.96
2023-05-02T10:45:10.975Z,27.65
2023-05-02T10:46:11.091Z,42.49
2023-05-02T10:47:11.114Z,52.72
2023-05-02T10:48:11.189Z,55.84
2023-05-02T10:49:11.192Z,60.25
2023-05-02T10:50:11.228Z,71.28
2023-05-02T10:51:11.251Z,73.58
2023-05-02T10:52:11.250Z,79.71
2023-05-02T10:53:11.301Z,89.27
2023-05-02T10:54:11.272Z,85.36
2023-05-02T10:55:11.287Z,86.92
2023-05-02T10:56:11.305Z,95.39
2023-05-02T10:57:11.307Z,98.21
2023-05-02T10:58:11.299Z,96.23
2023-05-02T10:59:11.304Z,91.15
2023-05-02T11:00:11.286Z,89.52
2023-05-02T11:01:11.338Z,99.88
2023-05-02T11:02:11.325Z,104.45
2023-05-02T11:03:11.495Z,107.34
2023-05-02T11:04:11.284Z,110.33
2023-05-02T11:05:11.276Z,103.00
2023-05-02T11:06:11.306Z,108.55
2023-05-02T11:07:11.302Z,110.86
2023-05-02T11:08:11.329Z,117.96
2023-05-02T11:09:11.397Z,122.05
2023-05-02T11:10:11.456Z,117.01
2023-05-02T11:11:11.481Z,120.02
2023-05-02T11:12:11.562Z,119.52
2023-05-02T11:13:11.561Z,110.19
2023-05-02T11:14:11.601Z,117.46
2023-05-02T11:15:12.478Z,104.33
2023-05-02T11:16:11.744Z,103.33
2023-05-02T11:17:11.789Z,108.74
2023-05-02T11:18:12.129Z,116.43
2023-05-02T11:19:11.905Z,122.12
2023-05-02T11:20:11.935Z,118.34
2023-05-02T11:21:12.020Z,122.49
2023-05-02T11:22:12.077Z,110.73
2023-05-02T11:23:12.095Z,124.68
2023-05-02T11:24:12.133Z,119.70
2023-05-02T11:25:12.190Z,128.92
2023-05-02T11:26:12.270Z,127.62
2023-05-02T11:27:12.331Z,133.70
2023-05-02T11:28:12.368Z,132.44
2023-05-02T11:29:12.415Z,130.61
2023-05-02T11:30:12.477Z,127.86
2023-05-02T11:31:13.031Z,114.78
2023-05-02T11:32:12.588Z,119.99
2023-05-02T11:33:12.690Z,109.34
2023-05-02T11:34:12.643Z,100.11
2023-05-02T11:35:12.655Z,94.59
2023-05-02T11:36:13.032Z,90.48
2023-05-02T11:37:12.665Z,87.32
2023-05-02T11:38:12.669Z,84.57
2023-05-02T11:39:12.667Z,85.68
2023-05-02T11:40:12.739Z,78.93
2023-05-02T11:41:12.702Z,74.63
2023-05-02T11:42:12.673Z,71.40
2023-05-02T11:43:12.729Z,61.66
2023-05-02T11:44:12.733Z,52.78
2023-05-02T11:45:12.774Z,45.59
2023-05-02T11:46:12.817Z,49.36
2023-05-02T11:47:12.834Z,34.92
2023-05-02T11:48:12.952Z,32.83
2023-05-02T11:49:14.793Z,30.70
2023-05-02T11:50:12.943Z,30.15
2023-05-02T11:51:12.987Z,25.26
2023-05-02T11:52:13.006Z,25.41
2023-05-02T11:53:13.051Z,24.42
2023-05-02T11:54:13.100Z,24.64
2023-05-02T11:55:13.133Z,27.55
2023-05-02T11:56:13.181Z,29.37
2023-05-02T11:57:13.203Z,31.51
2023-05-02T11:58:13.257Z,28.10
2023-05-02T11:59:13.299Z,27.00
2023-05-02T12:00:13.364Z,25.87
2023-05-02T12:01:13.467Z,25.40
2023-05-02T12:02:13.462Z,25.42
2023-05-02T12:03:13.487Z,25.00
2023-05-02T12:04:13.521Z,25.41
2023-05-02T12:05:13.699Z,24.45
2023-05-02T12:06:14.045Z,27.12
2023-05-02T12:07:13.709Z,29.46
2023-05-02T12:08:13.737Z,30.66
2023-05-02T12:09:13.766Z,25.77
2023-05-02T12:10:13.800Z,26.45
2023-05-02T12:11:13.881Z,31.16
2023-05-02T12:12:13.921Z,34.68
2023-05-02T12:13:13.973Z,33.54
2023-05-02T12:14:14.033Z,30.81
2023-05-02T12:15:14.084Z,34.36
2023-05-02T12:16:14.169Z,34.00
2023-05-02T12:17:14.224Z,36.13
2023-05-02T12:18:14.254Z,36.99
2023-05-02T12:19:14.353Z,39.24
2023-05-02T12:20:14.374Z,37.79
2023-05-02T12:21:14.437Z,37.45
2023-05-02T12:22:14.493Z,40.32
2023-05-02T12:23:14.558Z,37.74
2023-05-02T12:24:14.622Z,38.86
2023-05-02T12:25:14.664Z,42.31
2023-05-02T12:26:14.730Z,41.65
2023-05-02T12:27:14.790Z,34.57
2023-05-02T12:28:14.820Z,36.50
2023-05-02T12:29:14.918Z,41.73
2023-05-02T12:30:14.949Z,45.05
2023-05-02T12:31:15.048Z,47.09
2023-05-02T12:32:15.050Z,48.44
2023-05-02T12:33:15.155Z,47.65
2023-05-02T12:34:15.184Z,47.62
2023-05-02T12:35:15.241Z,50.86
2023-05-02T12:36:15.355Z,49.73
2023-05-02T12:37:15.386Z,47.84
2023-05-02T12:38:15.431Z,45.24
2023-05-02T12:39:15.476Z,41.56
2023-05-02T12:40:15.562Z,39.70
2023-05-02T12:41:15.609Z,41.00
2023-05-02T12:42:15.670Z,41.62
2023-05-02T12:43:15.705Z,38.99
2023-05-02T12:44:15.776Z,36.31
2023-05-02T12:45:15.879Z,34.99
2023-05-02T12:46:15.916Z,31.60